sensor_id;sensor_type;location;lat;lon;timestamp;pressure;altitude;pressure_sealevel;temperature;humidity
83195;BME280;73090;49.282;11.402;2024-01-30T00:03:21;97862.38;;;-2.23;92.05
83195;BME280;73090;49.282;11.402;2024-01-30T00:07:23;97858.09;;;-2.23;92.12
83195;BME280;73090;49.282;11.402;2024-01-30T00:11:25;97860.88;;;-2.27;91.72
83195;BME280;73090;49.282;11.402;2024-01-30T00:15:26;97862.75;;;-2.31;91.33
83195;BME280;73090;49.282;11.402;2024-01-30T00:19:28;97868.81;;;-2.32;91.14
83195;BME280;73090;49.282;11.402;2024-01-30T00:23:30;97882.75;;;-2.36;90.70
83195;BME280;73090;49.282;11.402;2024-01-30T00:27:31;97882.94;;;-2.41;90.91
83195;BME280;73090;49.282;11.402;2024-01-30T00:31:33;97879.63;;;-2.43;90.08
83195;BME280;73090;49.282;11.402;2024-01-30T00:35:35;97874.34;;;-2.40;90.04
83195;BME280;73090;49.282;11.402;2024-01-30T00:39:36;97874.41;;;-2.41;90.39
83195;BME280;73090;49.282;11.402;2024-01-30T00:43:38;97880.44;;;-2.42;89.98
83195;BME280;73090;49.282;11.402;2024-01-30T00:47:40;97878.81;;;-2.43;90.04
83195;BME280;73090;49.282;11.402;2024-01-30T00:51:41;97872.13;;;-2.47;90.30
83195;BME280;73090;49.282;11.402;2024-01-30T00:55:43;97871.97;;;-2.44;90.21
83195;BME280;73090;49.282;11.402;2024-01-30T00:59:44;97874.53;;;-2.44;90.12
83195;BME280;73090;49.282;11.402;2024-01-30T01:03:46;97878.22;;;-2.50;89.83
83195;BME280;73090;49.282;11.402;2024-01-30T01:07:48;97869.00;;;-2.54;90.60
83195;BME280;73090;49.282;11.402;2024-01-30T01:11:49;97866.69;;;-2.60;89.90
83195;BME280;73090;49.282;11.402;2024-01-30T01:15:51;97872.59;;;-2.58;90.09
83195;BME280;73090;49.282;11.402;2024-01-30T01:19:52;97870.03;;;-2.58;89.95
83195;BME280;73090;49.282;11.402;2024-01-30T01:23:54;97868.53;;;-2.62;90.12
83195;BME280;73090;49.282;11.402;2024-01-30T01:27:56;97859.31;;;-2.68;90.19
83195;BME280;73090;49.282;11.402;2024-01-30T01:31:58;97868.59;;;-2.64;90.03
83195;BME280;73090;49.282;11.402;2024-01-30T01:36:00;97864.41;;;-2.66;90.34
83195;BME280;73090;49.282;11.402;2024-01-30T01:40:04;97855.16;;;-2.70;90.25
83195;BME280;73090;49.282;11.402;2024-01-30T01:44:06;97857.56;;;-2.67;90.15
83195;BME280;73090;49.282;11.402;2024-01-30T01:48:08;97859.47;;;-2.71;91.06
83195;BME280;73090;49.282;11.402;2024-01-30T01:52:10;97857.25;;;-2.79;91.19
83195;BME280;73090;49.282;11.402;2024-01-30T01:56:12;97860.53;;;-2.75;90.83
83195;BME280;73090;49.282;11.402;2024-01-30T02:00:14;97852.94;;;-2.78;91.36
83195;BME280;73090;49.282;11.402;2024-01-30T02:04:17;97857.09;;;-2.76;91.39
83195;BME280;73090;49.282;11.402;2024-01-30T02:08:18;97847.09;;;-2.82;91.15
83195;BME280;73090;49.282;11.402;2024-01-30T02:12:20;97851.41;;;-2.82;91.00
83195;BME280;73090;49.282;11.402;2024-01-30T02:16:22;97854.72;;;-2.80;90.55
83195;BME280;73090;49.282;11.402;2024-01-30T02:20:25;97851.41;;;-2.82;90.18
83195;BME280;73090;49.282;11.402;2024-01-30T02:24:26;97847.00;;;-2.80;89.87
83195;BME280;73090;49.282;11.402;2024-01-30T02:28:28;97852.09;;;-2.79;90.11
83195;BME280;73090;49.282;11.402;2024-01-30T02:32:29;97850.44;;;-2.80;90.99
83195;BME280;73090;49.282;11.402;2024-01-30T02:36:31;97840.44;;;-2.86;90.63
83195;BME280;73090;49.282;11.402;2024-01-30T02:40:32;97831.78;;;-2.85;90.30
83195;BME280;73090;49.282;11.402;2024-01-30T02:44:34;97838.75;;;-2.87;90.69
83195;BME280;73090;49.282;11.402;2024-01-30T02:48:36;97832.78;;;-2.87;90.17
83195;BME280;73090;49.282;11.402;2024-01-30T02:52:37;97827.16;;;-2.96;90.19
83195;BME280;73090;49.282;11.402;2024-01-30T02:56:39;97819.91;;;-2.87;90.44
83195;BME280;73090;49.282;11.402;2024-01-30T03:00:41;97821.00;;;-2.93;90.79
83195;BME280;73090;49.282;11.402;2024-01-30T03:04:42;97819.97;;;-2.89;90.67
83195;BME280;73090;49.282;11.402;2024-01-30T03:08:44;97820.88;;;-2.90;90.81
83195;BME280;73090;49.282;11.402;2024-01-30T03:12:46;97815.94;;;-2.95;91.27
83195;BME280;73090;49.282;11.402;2024-01-30T03:16:47;97811.06;;;-3.01;90.62
83195;BME280;73090;49.282;11.402;2024-01-30T03:20:49;97806.78;;;-3.00;90.96
83195;BME280;73090;49.282;11.402;2024-01-30T03:24:50;97801.69;;;-3.02;90.64
83195;BME280;73090;49.282;11.402;2024-01-30T03:28:52;97809.41;;;-3.02;90.52
83195;BME280;73090;49.282;11.402;2024-01-30T03:32:54;97800.28;;;-3.09;91.17
83195;BME280;73090;49.282;11.402;2024-01-30T03:36:56;97785.84;;;-3.12;91.10
83195;BME280;73090;49.282;11.402;2024-01-30T03:40:59;97794.25;;;-3.08;91.60
83195;BME280;73090;49.282;11.402;2024-01-30T03:45:01;97790.47;;;-3.01;92.07
83195;BME280;73090;49.282;11.402;2024-01-30T03:49:03;97790.47;;;-3.01;92.23
83195;BME280;73090;49.282;11.402;2024-01-30T03:53:05;97787.84;;;-2.99;92.49
83195;BME280;73090;49.282;11.402;2024-01-30T03:57:07;97783.91;;;-3.06;92.20
83195;BME280;73090;49.282;11.402;2024-01-30T04:01:13;97784.44;;;-3.00;92.21
83195;BME280;73090;49.282;11.402;2024-01-30T04:05:15;97788.91;;;-3.03;92.49
83195;BME280;73090;49.282;11.402;2024-01-30T04:09:16;97792.38;;;-3.04;92.59
83195;BME280;73090;49.282;11.402;2024-01-30T04:13:18;97789.66;;;-3.01;92.58
83195;BME280;73090;49.282;11.402;2024-01-30T04:17:20;97798.28;;;-3.02;92.57
83195;BME280;73090;49.282;11.402;2024-01-30T04:21:22;97797.44;;;-3.03;92.40
83195;BME280;73090;49.282;11.402;2024-01-30T04:25:23;97795.78;;;-3.04;92.42
83195;BME280;73090;49.282;11.402;2024-01-30T04:29:25;97798.19;;;-3.01;92.20
83195;BME280;73090;49.282;11.402;2024-01-30T04:33:27;97803.72;;;-3.08;91.77
83195;BME280;73090;49.282;11.402;2024-01-30T04:37:28;97798.50;;;-3.07;92.51
83195;BME280;73090;49.282;11.402;2024-01-30T04:41:30;97803.84;;;-3.12;92.20
83195;BME280;73090;49.282;11.402;2024-01-30T04:45:33;97796.00;;;-3.08;92.25
83195;BME280;73090;49.282;11.402;2024-01-30T04:49:35;97796.00;;;-3.08;92.33
83195;BME280;73090;49.282;11.402;2024-01-30T04:53:36;97802.94;;;-3.11;92.02
83195;BME280;73090;49.282;11.402;2024-01-30T04:57:38;97806.50;;;-3.13;91.88
83195;BME280;73090;49.282;11.402;2024-01-30T05:01:40;97803.94;;;-3.13;92.17
83195;BME280;73090;49.282;11.402;2024-01-30T05:05:41;97813.50;;;-3.17;91.93
83195;BME280;73090;49.282;11.402;2024-01-30T05:09:43;97820.53;;;-3.20;92.03
83195;BME280;73090;49.282;11.402;2024-01-30T05:13:45;97819.56;;;-3.18;92.27
83195;BME280;73090;49.282;11.402;2024-01-30T05:17:46;97819.50;;;-3.16;92.94
83195;BME280;73090;49.282;11.402;2024-01-30T05:21:48;97821.16;;;-3.15;92.91
83195;BME280;73090;49.282;11.402;2024-01-30T05:25:49;97815.25;;;-3.17;93.32
83195;BME280;73090;49.282;11.402;2024-01-30T05:29:51;97822.06;;;-3.16;92.95
83195;BME280;73090;49.282;11.402;2024-01-30T05:33:54;97817.06;;;-3.19;93.39
83195;BME280;73090;49.282;11.402;2024-01-30T05:37:55;97827.41;;;-3.21;93.27
83195;BME280;73090;49.282;11.402;2024-01-30T05:41:57;97828.31;;;-3.22;93.04
83195;BME280;73090;49.282;11.402;2024-01-30T05:45:58;97836.78;;;-3.20;93.06
83195;BME280;73090;49.282;11.402;2024-01-30T05:50:00;97842.00;;;-3.21;93.59
83195;BME280;73090;49.282;11.402;2024-01-30T05:54:02;97841.72;;;-3.15;93.10
83195;BME280;73090;49.282;11.402;2024-01-30T05:58:05;97837.56;;;-3.18;93.10
83195;BME280;73090;49.282;11.402;2024-01-30T06:02:06;97845.22;;;-3.16;93.27
83195;BME280;73090;49.282;11.402;2024-01-30T06:06:08;97840.06;;;-3.16;93.06
83195;BME280;73090;49.282;11.402;2024-01-30T06:10:10;97844.22;;;-3.14;93.48
83195;BME280;73090;49.282;11.402;2024-01-30T06:14:11;97847.00;;;-3.18;93.79
83195;BME280;73090;49.282;11.402;2024-01-30T06:18:13;97841.09;;;-3.20;93.79
83195;BME280;73090;49.282;11.402;2024-01-30T06:22:15;97836.78;;;-3.20;93.94
83195;BME280;73090;49.282;11.402;2024-01-30T06:26:17;97842.84;;;-3.21;93.67
83195;BME280;73090;49.282;11.402;2024-01-30T06:30:19;97839.34;;;-3.20;93.63
83195;BME280;73090;49.282;11.402;2024-01-30T06:34:21;97839.22;;;-3.17;93.69
83195;BME280;73090;49.282;11.402;2024-01-30T06:38:23;97846.94;;;-3.17;93.79
83195;BME280;73090;49.282;11.402;2024-01-30T06:42:24;97844.28;;;-3.15;93.83
83195;BME280;73090;49.282;11.402;2024-01-30T06:46:26;97839.50;;;-3.04;93.23
83195;BME280;73090;49.282;11.402;2024-01-30T06:50:29;97844.50;;;-3.01;93.42
83195;BME280;73090;49.282;11.402;2024-01-30T06:54:30;97841.88;;;-2.99;93.42
83195;BME280;73090;49.282;11.402;2024-01-30T06:58:32;97845.84;;;-2.92;93.76
83195;BME280;73090;49.282;11.402;2024-01-30T07:02:34;97843.06;;;-2.87;93.43
83195;BME280;73090;49.282;11.402;2024-01-30T07:06:35;97841.72;;;-2.77;93.59
83195;BME280;73090;49.282;11.402;2024-01-30T07:10:37;97846.38;;;-2.66;93.27
83195;BME280;73090;49.282;11.402;2024-01-30T07:14:39;97849.91;;;-2.50;92.64
83195;BME280;73090;49.282;11.402;2024-01-30T07:18:41;97848.16;;;-2.30;92.61
83195;BME280;73090;49.282;11.402;2024-01-30T07:22:43;97848.91;;;-2.11;91.75
83195;BME280;73090;49.282;11.402;2024-01-30T07:26:45;97849.84;;;-1.94;91.18
83195;BME280;73090;49.282;11.402;2024-01-30T07:30:47;97854.69;;;-1.71;89.96
83195;BME280;73090;49.282;11.402;2024-01-30T07:34:49;97859.75;;;-1.52;88.72
83195;BME280;73090;49.282;11.402;2024-01-30T07:39:07;97860.31;;;-1.29;88.67
83195;BME280;73090;49.282;11.402;2024-01-30T07:43:09;97873.25;;;-1.13;88.28
83195;BME280;73090;49.282;11.402;2024-01-30T07:47:10;97869.22;;;-1.01;88.17
83195;BME280;73090;49.282;11.402;2024-01-30T07:51:12;97873.84;;;-0.75;88.20
83195;BME280;73090;49.282;11.402;2024-01-30T07:55:13;97873.00;;;-0.43;87.37
83195;BME280;73090;49.282;11.402;2024-01-30T07:59:15;97876.97;;;-0.06;85.78
83195;BME280;73090;49.282;11.402;2024-01-30T08:03:17;97872.28;;;0.31;83.79
83195;BME280;73090;49.282;11.402;2024-01-30T08:07:19;97874.28;;;0.71;81.97
83195;BME280;73090;49.282;11.402;2024-01-30T08:11:22;97873.91;;;0.92;79.84
83195;BME280;73090;49.282;11.402;2024-01-30T08:15:28;97874.94;;;1.18;79.46
83195;BME280;73090;49.282;11.402;2024-01-30T08:19:29;97871.38;;;1.48;78.25
83195;BME280;73090;49.282;11.402;2024-01-30T08:23:31;97875.34;;;1.53;76.42
83195;BME280;73090;49.282;11.402;2024-01-30T08:27:32;97880.53;;;1.53;75.99
83195;BME280;73090;49.282;11.402;2024-01-30T08:31:34;97877.66;;;1.58;77.51
83195;BME280;73090;49.282;11.402;2024-01-30T08:35:36;97867.38;;;1.84;77.14
83195;BME280;73090;49.282;11.402;2024-01-30T08:39:37;97875.97;;;2.11;75.64
83195;BME280;73090;49.282;11.402;2024-01-30T08:43:39;97865.41;;;2.27;75.86
83195;BME280;73090;49.282;11.402;2024-01-30T08:47:40;97869.91;;;2.51;74.97
83195;BME280;73090;49.282;11.402;2024-01-30T08:51:42;97873.19;;;2.67;74.20
83195;BME280;73090;49.282;11.402;2024-01-30T08:55:44;97870.06;;;2.88;73.50
83195;BME280;73090;49.282;11.402;2024-01-30T08:59:46;97872.84;;;3.11;73.20
83195;BME280;73090;49.282;11.402;2024-01-30T09:03:48;97886.44;;;3.27;73.64
83195;BME280;73090;49.282;11.402;2024-01-30T09:07:49;97878.78;;;3.50;71.97
83195;BME280;73090;49.282;11.402;2024-01-30T09:11:51;97885.97;;;3.83;71.60
83195;BME280;73090;49.282;11.402;2024-01-30T09:15:53;97885.72;;;4.10;71.04
83195;BME280;73090;49.282;11.402;2024-01-30T09:19:54;97891.09;;;3.72;71.23
83195;BME280;73090;49.282;11.402;2024-01-30T09:24:02;97887.13;;;4.03;71.49
83195;BME280;73090;49.282;11.402;2024-01-30T09:28:05;97884.75;;;4.00;70.97
83195;BME280;73090;49.282;11.402;2024-01-30T09:32:07;97885.34;;;3.79;70.99
83195;BME280;73090;49.282;11.402;2024-01-30T09:36:10;97884.03;;;3.98;70.94
83195;BME280;73090;49.282;11.402;2024-01-30T09:40:12;97873.47;;;4.59;70.72
83195;BME280;73090;49.282;11.402;2024-01-30T09:44:16;97882.75;;;4.86;68.88
83195;BME280;73090;49.282;11.402;2024-01-30T09:48:17;97880.25;;;4.73;68.84
83195;BME280;73090;49.282;11.402;2024-01-30T09:52:19;97885.22;;;4.29;69.99
83195;BME280;73090;49.282;11.402;2024-01-30T09:56:21;97876.41;;;4.54;69.64
83195;BME280;73090;49.282;11.402;2024-01-30T10:00:23;97869.97;;;4.94;69.77
83195;BME280;73090;49.282;11.402;2024-01-30T10:04:28;97875.91;;;5.30;68.49
83195;BME280;73090;49.282;11.402;2024-01-30T10:08:30;97870.84;;;5.72;67.23
83195;BME280;73090;49.282;11.402;2024-01-30T10:12:32;97863.22;;;6.03;65.51
83195;BME280;73090;49.282;11.402;2024-01-30T10:16:36;97870.03;;;6.48;63.73
83195;BME280;73090;49.282;11.402;2024-01-30T10:20:38;97863.84;;;6.70;64.42
83195;BME280;73090;49.282;11.402;2024-01-30T10:24:39;97862.41;;;6.87;63.93
83195;BME280;73090;49.282;11.402;2024-01-30T10:28:41;97867.16;;;7.03;63.62
83195;BME280;73090;49.282;11.402;2024-01-30T10:32:43;97859.22;;;7.14;62.41
83195;BME280;73090;49.282;11.402;2024-01-30T10:36:46;97865.63;;;7.31;61.02
83195;BME280;73090;49.282;11.402;2024-01-30T10:40:56;97864.59;;;7.43;62.49
83195;BME280;73090;49.282;11.402;2024-01-30T10:49:17;97859.47;;;7.42;60.85
83195;BME280;73090;49.282;11.402;2024-01-30T10:53:20;97861.19;;;7.22;61.92
83195;BME280;73090;49.282;11.402;2024-01-30T10:57:26;97851.38;;;7.14;61.20
83195;BME280;73090;49.282;11.402;2024-01-30T11:01:28;97856.19;;;7.09;63.84
83195;BME280;73090;49.282;11.402;2024-01-30T11:05:30;97854.69;;;7.06;64.18
83195;BME280;73090;49.282;11.402;2024-01-30T11:09:36;97848.81;;;7.24;62.83
83195;BME280;73090;49.282;11.402;2024-01-30T11:13:38;97856.41;;;7.27;63.59
83195;BME280;73090;49.282;11.402;2024-01-30T11:17:51;97835.22;;;7.30;63.27
83195;BME280;73090;49.282;11.402;2024-01-30T11:21:54;97834.81;;;7.35;62.81
83195;BME280;73090;49.282;11.402;2024-01-30T11:25:56;97842.25;;;7.39;62.10
83195;BME280;73090;49.282;11.402;2024-01-30T11:30:02;97833.78;;;7.16;62.37
83195;BME280;73090;49.282;11.402;2024-01-30T11:34:05;97836.47;;;6.95;63.78
83195;BME280;73090;49.282;11.402;2024-01-30T11:38:09;97832.28;;;6.83;63.47
83195;BME280;73090;49.282;11.402;2024-01-30T11:42:11;97843.59;;;6.93;63.02
83195;BME280;73090;49.282;11.402;2024-01-30T11:46:14;97839.72;;;6.87;63.13
83195;BME280;73090;49.282;11.402;2024-01-30T11:50:16;97835.66;;;6.74;63.33
83195;BME280;73090;49.282;11.402;2024-01-30T11:54:18;97827.25;;;6.70;63.90
83195;BME280;73090;49.282;11.402;2024-01-30T11:58:20;97823.63;;;6.61;63.91
83195;BME280;73090;49.282;11.402;2024-01-30T12:02:22;97823.38;;;6.43;63.15
83195;BME280;73090;49.282;11.402;2024-01-30T12:06:23;97820.22;;;6.40;64.53
83195;BME280;73090;49.282;11.402;2024-01-30T12:10:25;97811.84;;;6.46;64.82
83195;BME280;73090;49.282;11.402;2024-01-30T12:14:28;97811.22;;;6.32;65.25
83195;BME280;73090;49.282;11.402;2024-01-30T12:18:30;97799.31;;;6.40;65.27
83195;BME280;73090;49.282;11.402;2024-01-30T12:22:40;97796.81;;;6.38;65.46
83195;BME280;73090;49.282;11.402;2024-01-30T12:26:42;97797.78;;;6.37;65.75
83195;BME280;73090;49.282;11.402;2024-01-30T12:30:44;97789.94;;;6.37;66.46
83195;BME280;73090;49.282;11.402;2024-01-30T12:34:46;97785.78;;;6.34;66.34
83195;BME280;73090;49.282;11.402;2024-01-30T12:39:01;97778.94;;;6.33;66.35
83195;BME280;73090;49.282;11.402;2024-01-30T12:43:03;97779.31;;;6.29;66.12
83195;BME280;73090;49.282;11.402;2024-01-30T12:47:10;97771.59;;;6.27;66.16
83195;BME280;73090;49.282;11.402;2024-01-30T12:51:12;97771.59;;;6.27;65.71
83195;BME280;73090;49.282;11.402;2024-01-30T12:55:13;97768.91;;;6.39;65.18
83195;BME280;73090;49.282;11.402;2024-01-30T12:59:15;97763.09;;;6.25;64.97
83195;BME280;73090;49.282;11.402;2024-01-30T13:03:17;97758.81;;;6.24;66.12
83195;BME280;73090;49.282;11.402;2024-01-30T13:07:19;97765.56;;;6.27;65.96
83195;BME280;73090;49.282;11.402;2024-01-30T13:11:22;97764.91;;;6.34;66.21
83195;BME280;73090;49.282;11.402;2024-01-30T13:15:24;97759.53;;;6.36;65.96
83195;BME280;73090;49.282;11.402;2024-01-30T13:19:25;97757.25;;;6.43;66.36
83195;BME280;73090;49.282;11.402;2024-01-30T13:23:27;97753.94;;;6.41;66.56
83195;BME280;73090;49.282;11.402;2024-01-30T13:27:28;97757.81;;;6.46;66.17
83195;BME280;73090;49.282;11.402;2024-01-30T13:31:30;97755.50;;;6.53;65.60
83195;BME280;73090;49.282;11.402;2024-01-30T13:35:32;97764.63;;;6.59;65.79
83195;BME280;73090;49.282;11.402;2024-01-30T13:39:34;97759.41;;;6.59;67.01
83195;BME280;73090;49.282;11.402;2024-01-30T13:43:40;97753.63;;;6.65;66.33
83195;BME280;73090;49.282;11.402;2024-01-30T13:47:41;97764.69;;;6.68;66.61
83195;BME280;73090;49.282;11.402;2024-01-30T13:51:43;97759.75;;;6.75;66.70
83195;BME280;73090;49.282;11.402;2024-01-30T13:55:45;97769.13;;;6.78;65.79
83195;BME280;73090;49.282;11.402;2024-01-30T13:59:46;97768.81;;;6.81;65.90
83195;BME280;73090;49.282;11.402;2024-01-30T14:03:48;97772.56;;;6.78;65.96
83195;BME280;73090;49.282;11.402;2024-01-30T14:07:51;97770.47;;;6.72;65.59
83195;BME280;73090;49.282;11.402;2024-01-30T14:11:53;97774.16;;;6.69;65.67
83195;BME280;73090;49.282;11.402;2024-01-30T14:15:55;97767.81;;;6.62;66.19
83195;BME280;73090;49.282;11.402;2024-01-30T14:19:57;97773.16;;;6.61;66.09
83195;BME280;73090;49.282;11.402;2024-01-30T14:23:58;97772.72;;;6.56;65.65
83195;BME280;73090;49.282;11.402;2024-01-30T14:28:00;97771.44;;;6.50;66.08
83195;BME280;73090;49.282;11.402;2024-01-30T14:32:03;97769.22;;;6.45;66.15
83195;BME280;73090;49.282;11.402;2024-01-30T14:36:06;97780.06;;;6.41;67.73
83195;BME280;73090;49.282;11.402;2024-01-30T14:40:09;97783.19;;;6.34;70.46
83195;BME280;73090;49.282;11.402;2024-01-30T14:44:12;97781.91;;;6.29;70.91
83195;BME280;73090;49.282;11.402;2024-01-30T14:48:13;97785.28;;;6.20;71.10
83195;BME280;73090;49.282;11.402;2024-01-30T14:52:15;97786.41;;;6.06;73.50
83195;BME280;73090;49.282;11.402;2024-01-30T14:56:17;97784.94;;;5.92;74.83
83195;BME280;73090;49.282;11.402;2024-01-30T15:00:19;97785.81;;;5.81;75.33
83195;BME280;73090;49.282;11.402;2024-01-30T15:04:20;97788.47;;;5.70;76.38
83195;BME280;73090;49.282;11.402;2024-01-30T15:08:22;97789.19;;;5.60;77.08
83195;BME280;73090;49.282;11.402;2024-01-30T15:12:24;97782.34;;;5.48;77.28
83195;BME280;73090;49.282;11.402;2024-01-30T15:16:26;97794.00;;;5.33;77.92
83195;BME280;73090;49.282;11.402;2024-01-30T15:20:28;97798.66;;;5.18;77.86
83195;BME280;73090;49.282;11.402;2024-01-30T15:24:30;97800.69;;;5.03;77.98
83195;BME280;73090;49.282;11.402;2024-01-30T15:28:36;97798.34;;;4.88;78.21
83195;BME280;73090;49.282;11.402;2024-01-30T15:32:38;97801.03;;;4.76;78.60
83195;BME280;73090;49.282;11.402;2024-01-30T15:36:40;97809.31;;;4.58;79.19
83195;BME280;73090;49.282;11.402;2024-01-30T15:40:42;97807.75;;;4.44;79.55
83195;BME280;73090;49.282;11.402;2024-01-30T15:44:43;97814.94;;;4.29;79.80
83195;BME280;73090;49.282;11.402;2024-01-30T15:48:45;97815.97;;;4.15;80.27
83195;BME280;73090;49.282;11.402;2024-01-30T15:52:46;97818.78;;;4.01;80.38
83195;BME280;73090;49.282;11.402;2024-01-30T15:56:48;97826.66;;;3.88;80.61
83195;BME280;73090;49.282;11.402;2024-01-30T16:00:50;97836.69;;;3.69;81.36
83195;BME280;73090;49.282;11.402;2024-01-30T16:04:52;97835.22;;;3.53;81.89
83195;BME280;73090;49.282;11.402;2024-01-30T16:08:53;97844.91;;;3.38;81.98
83195;BME280;73090;49.282;11.402;2024-01-30T16:12:57;97835.38;;;3.26;82.45
83195;BME280;73090;49.282;11.402;2024-01-30T16:16:59;97845.63;;;3.03;83.02
83195;BME280;73090;49.282;11.402;2024-01-30T16:21:01;97842.81;;;2.94;83.54
83195;BME280;73090;49.282;11.402;2024-01-30T16:25:04;97840.75;;;2.86;83.49
83195;BME280;73090;49.282;11.402;2024-01-30T16:29:06;97845.75;;;2.76;83.90
83195;BME280;73090;49.282;11.402;2024-01-30T16:33:08;97847.41;;;2.64;84.34
83195;BME280;73090;49.282;11.402;2024-01-30T16:37:11;97847.53;;;2.50;84.45
83195;BME280;73090;49.282;11.402;2024-01-30T16:41:13;97856.63;;;2.43;84.94
83195;BME280;73090;49.282;11.402;2024-01-30T16:45:14;97856.72;;;2.41;84.63
83195;BME280;73090;49.282;11.402;2024-01-30T16:49:16;97860.22;;;2.27;84.70
83195;BME280;73090;49.282;11.402;2024-01-30T16:53:19;97864.38;;;2.17;84.92
83195;BME280;73090;49.282;11.402;2024-01-30T16:57:20;97865.88;;;2.07;84.75
83195;BME280;73090;49.282;11.402;2024-01-30T17:01:22;97870.22;;;1.93;84.99
83195;BME280;73090;49.282;11.402;2024-01-30T17:05:24;97862.59;;;1.77;85.79
83195;BME280;73090;49.282;11.402;2024-01-30T17:09:28;97872.44;;;1.72;86.07
83195;BME280;73090;49.282;11.402;2024-01-30T17:13:30;97858.72;;;1.70;86.25
83195;BME280;73090;49.282;11.402;2024-01-30T17:17:32;97860.78;;;1.65;85.99
83195;BME280;73090;49.282;11.402;2024-01-30T17:21:34;97868.41;;;1.54;86.65
83195;BME280;73090;49.282;11.402;2024-01-30T17:25:39;97876.34;;;1.51;86.54
83195;BME280;73090;49.282;11.402;2024-01-30T17:29:41;97871.13;;;1.38;87.20
83195;BME280;73090;49.282;11.402;2024-01-30T17:33:43;97877.63;;;1.31;87.54
83195;BME280;73090;49.282;11.402;2024-01-30T17:37:44;97879.63;;;1.25;87.60
83195;BME280;73090;49.282;11.402;2024-01-30T17:41:46;97883.81;;;1.28;87.87
83195;BME280;73090;49.282;11.402;2024-01-30T17:45:48;97892.13;;;1.19;88.14
83195;BME280;73090;49.282;11.402;2024-01-30T17:49:50;97900.19;;;1.14;88.49
83195;BME280;73090;49.282;11.402;2024-01-30T17:53:51;97908.13;;;1.11;88.34
83195;BME280;73090;49.282;11.402;2024-01-30T17:57:53;97898.91;;;1.07;89.07
83195;BME280;73090;49.282;11.402;2024-01-30T18:01:55;97896.59;;;1.02;89.29
83195;BME280;73090;49.282;11.402;2024-01-30T18:05:56;97893.06;;;1.03;89.43
83195;BME280;73090;49.282;11.402;2024-01-30T18:09:58;97891.59;;;0.99;89.71
83195;BME280;73090;49.282;11.402;2024-01-30T18:14:00;97891.88;;;0.95;89.38
83195;BME280;73090;49.282;11.402;2024-01-30T18:18:02;97901.56;;;0.91;89.93
83195;BME280;73090;49.282;11.402;2024-01-30T18:22:04;97904.16;;;0.91;89.99
83195;BME280;73090;49.282;11.402;2024-01-30T18:26:06;97909.63;;;0.86;90.76
83195;BME280;73090;49.282;11.402;2024-01-30T18:30:08;97908.88;;;0.84;91.11
83195;BME280;73090;49.282;11.402;2024-01-30T18:34:09;97914.06;;;0.84;90.91
83195;BME280;73090;49.282;11.402;2024-01-30T18:38:11;97913.28;;;0.82;90.97
83195;BME280;73090;49.282;11.402;2024-01-30T18:42:13;97907.38;;;0.80;91.05
83195;BME280;73090;49.282;11.402;2024-01-30T18:46:14;97910.53;;;0.85;91.45
83195;BME280;73090;49.282;11.402;2024-01-30T18:50:22;97913.13;;;0.85;91.02
83195;BME280;73090;49.282;11.402;2024-01-30T18:54:24;97909.78;;;0.83;90.96
83195;BME280;73090;49.282;11.402;2024-01-30T18:58:26;97911.47;;;0.84;91.48
83195;BME280;73090;49.282;11.402;2024-01-30T19:02:29;97907.00;;;0.72;91.30
83195;BME280;73090;49.282;11.402;2024-01-30T19:06:30;97901.16;;;0.68;91.76
83195;BME280;73090;49.282;11.402;2024-01-30T19:10:33;97909.44;;;0.75;91.37
83195;BME280;73090;49.282;11.402;2024-01-30T19:14:43;97900.91;;;0.73;91.66
83195;BME280;73090;49.282;11.402;2024-01-30T19:18:45;97900.59;;;0.63;91.65
83195;BME280;73090;49.282;11.402;2024-01-30T19:22:46;97897.47;;;0.58;91.77
83195;BME280;73090;49.282;11.402;2024-01-30T19:26:48;97898.38;;;0.57;91.83
83195;BME280;73090;49.282;11.402;2024-01-30T19:30:51;97902.63;;;0.58;91.89
83195;BME280;73090;49.282;11.402;2024-01-30T19:34:53;97906.81;;;0.61;91.89
83195;BME280;73090;49.282;11.402;2024-01-30T19:38:55;97914.38;;;0.49;91.76
83195;BME280;73090;49.282;11.402;2024-01-30T19:42:56;97911.09;;;0.46;91.92
83195;BME280;73090;49.282;11.402;2024-01-30T19:46:58;97905.03;;;0.47;92.32
83195;BME280;73090;49.282;11.402;2024-01-30T19:51:06;97917.69;;;0.51;92.55
83195;BME280;73090;49.282;11.402;2024-01-30T19:55:09;97913.34;;;0.52;92.72
83195;BME280;73090;49.282;11.402;2024-01-30T19:59:11;97912.25;;;0.56;92.78
83195;BME280;73090;49.282;11.402;2024-01-30T20:03:12;97908.28;;;0.65;92.78
83195;BME280;73090;49.282;11.402;2024-01-30T20:07:14;97920.41;;;0.64;92.91
83195;BME280;73090;49.282;11.402;2024-01-30T20:11:19;97918.00;;;0.61;93.01
83195;BME280;73090;49.282;11.402;2024-01-30T20:15:20;97920.56;;;0.61;92.85
83195;BME280;73090;49.282;11.402;2024-01-30T20:19:22;97930.09;;;0.61;93.14
83195;BME280;73090;49.282;11.402;2024-01-30T20:23:25;97918.53;;;0.66;93.10
83195;BME280;73090;49.282;11.402;2024-01-30T20:27:26;97918.53;;;0.66;92.79
83195;BME280;73090;49.282;11.402;2024-01-30T20:31:28;97916.69;;;0.68;93.10
83195;BME280;73090;49.282;11.402;2024-01-30T20:35:30;97927.81;;;0.70;92.76
83195;BME280;73090;49.282;11.402;2024-01-30T20:39:32;97931.31;;;0.69;92.61
83195;BME280;73090;49.282;11.402;2024-01-30T20:43:34;97945.84;;;0.72;92.96
83195;BME280;73090;49.282;11.402;2024-01-30T20:47:36;97949.25;;;0.72;93.22
83195;BME280;73090;49.282;11.402;2024-01-30T20:51:38;97936.31;;;0.72;93.42
83195;BME280;73090;49.282;11.402;2024-01-30T20:55:39;97939.63;;;0.75;93.75
83195;BME280;73090;49.282;11.402;2024-01-30T20:59:41;97935.88;;;0.80;94.00
83195;BME280;73090;49.282;11.402;2024-01-30T21:03:43;97945.84;;;0.86;94.16
83195;BME280;73090;49.282;11.402;2024-01-30T21:07:46;97946.59;;;0.88;93.88
83195;BME280;73090;49.282;11.402;2024-01-30T21:11:49;97939.47;;;0.92;93.54
83195;BME280;73090;49.282;11.402;2024-01-30T21:15:50;97940.06;;;0.97;93.61
83195;BME280;73090;49.282;11.402;2024-01-30T21:19:52;97939.78;;;1.02;93.65
83195;BME280;73090;49.282;11.402;2024-01-30T21:23:54;97939.03;;;1.00;93.19